sensor_id;sensor_type;location;lat;lon;timestamp;pressure;altitude;pressure_sealevel;temperature;humidity
19797;BME280;10058;57.654;12.044;2023-01-30T00:00:48;98688.22;;;6.63;100.00
19797;BME280;10058;57.654;12.044;2023-01-30T00:03:13;98691.72;;;6.64;100.00
19797;BME280;10058;57.654;12.044;2023-01-30T00:05:39;98674.25;;;6.66;100.00
19797;BME280;10058;57.654;12.044;2023-01-30T00:08:04;98662.81;;;6.58;100.00
19797;BME280;10058;57.654;12.044;2023-01-30T00:10:29;98669.78;;;6.54;100.00
19797;BME280;10058;57.654;12.044;2023-01-30T00:12:54;98674.19;;;6.57;100.00
19797;BME280;10058;57.654;12.044;2023-01-30T00:15:19;98663.53;;;6.45;100.00
19797;BME280;10058;57.654;12.044;2023-01-30T00:17:44;98653.88;;;6.39;100.00
19797;BME280;10058;57.654;12.044;2023-01-30T00:20:10;98644.22;;;6.35;100.00
19797;BME280;10058;57.654;12.044;2023-01-30T00:22:35;98654.72;;;6.35;100.00
19797;BME280;10058;57.654;12.044;2023-01-30T00:25:00;98654.66;;;6.31;100.00
19797;BME280;10058;57.654;12.044;2023-01-30T00:27:26;98661.72;;;6.36;100.00
19797;BME280;10058;57.654;12.044;2023-01-30T00:29:51;98665.25;;;6.40;100.00
19797;BME280;10058;57.654;12.044;2023-01-30T00:32:16;98649.38;;;6.27;100.00
19797;BME280;10058;57.654;12.044;2023-01-30T00:34:41;98658.06;;;6.23;100.00
19797;BME280;10058;57.654;12.044;2023-01-30T00:37:06;98657.19;;;6.24;100.00
19797;BME280;10058;57.654;12.044;2023-01-30T00:39:31;98642.31;;;6.20;100.00
19797;BME280;10058;57.654;12.044;2023-01-30T00:41:57;98631.00;;;6.26;100.00
19797;BME280;10058;57.654;12.044;2023-01-30T00:44:41;98612.56;;;6.18;100.00
19797;BME280;10058;57.654;12.044;2023-01-30T00:47:25;98616.97;;;6.21;100.00
19797;BME280;10058;57.654;12.044;2023-01-30T00:49:50;98617.84;;;6.24;100.00
19797;BME280;10058;57.654;12.044;2023-01-30T00:52:15;98612.53;;;6.15;100.00
19797;BME280;10058;57.654;12.044;2023-01-30T00:54:40;98600.19;;;6.08;100.00
19797;BME280;10058;57.654;12.044;2023-01-30T00:57:05;98602.88;;;6.13;100.00
19797;BME280;10058;57.654;12.044;2023-01-30T00:59:31;98572.22;;;6.07;100.00
19797;BME280;10058;57.654;12.044;2023-01-30T01:01:56;98581.06;;;6.15;100.00
19797;BME280;10058;57.654;12.044;2023-01-30T01:04:21;98591.44;;;6.03;100.00
19797;BME280;10058;57.654;12.044;2023-01-30T01:06:46;98596.69;;;6.03;100.00
19797;BME280;10058;57.654;12.044;2023-01-30T01:09:11;98580.16;;;6.12;100.00
19797;BME280;10058;57.654;12.044;2023-01-30T01:11:36;98580.28;;;6.22;100.00
19797;BME280;10058;57.654;12.044;2023-01-30T01:14:03;98582.88;;;6.21;100.00
19797;BME280;10058;57.654;12.044;2023-01-30T01:16:28;98572.22;;;6.07;100.00
19797;BME280;10058;57.654;12.044;2023-01-30T01:18:54;98567.03;;;6.13;100.00
19797;BME280;10058;57.654;12.044;2023-01-30T01:21:19;98569.59;;;6.07;100.00
19797;BME280;10058;57.654;12.044;2023-01-30T01:23:51;98563.50;;;6.05;100.00
19797;BME280;10058;57.654;12.044;2023-01-30T01:26:18;98570.47;;;6.03;100.00
19797;BME280;10058;57.654;12.044;2023-01-30T01:28:43;98568.75;;;6.08;100.00
19797;BME280;10058;57.654;12.044;2023-01-30T01:31:09;98583.53;;;6.00;100.00
19797;BME280;10058;57.654;12.044;2023-01-30T01:33:34;98576.63;;;6.11;100.00
19797;BME280;10058;57.654;12.044;2023-01-30T01:35:59;98565.22;;;6.03;100.00
19797;BME280;10058;57.654;12.044;2023-01-30T01:38:25;98564.38;;;6.09;100.00
19797;BME280;10058;57.654;12.044;2023-01-30T01:40:50;98560.84;;;6.04;100.00
19797;BME280;10058;57.654;12.044;2023-01-30T01:43:37;98563.38;;;5.96;100.00
19797;BME280;10058;57.654;12.044;2023-01-30T01:46:12;98560.72;;;5.94;100.00
19797;BME280;10058;57.654;12.044;2023-01-30T01:48:43;98556.28;;;5.89;100.00
19797;BME280;10058;57.654;12.044;2023-01-30T01:54:02;98549.41;;;5.97;100.00
19797;BME280;10058;57.654;12.044;2023-01-30T01:56:30;98559.78;;;5.88;100.00
19797;BME280;10058;57.654;12.044;2023-01-30T01:58:57;98557.09;;;5.83;100.00
19797;BME280;10058;57.654;12.044;2023-01-30T02:01:25;98563.31;;;5.90;100.00
19797;BME280;10058;57.654;12.044;2023-01-30T02:03:53;98545.78;;;5.86;100.00
19797;BME280;10058;57.654;12.044;2023-01-30T02:06:20;98547.56;;;5.90;100.00
19797;BME280;10058;57.654;12.044;2023-01-30T02:08:47;98547.41;;;5.78;100.00
19797;BME280;10058;57.654;12.044;2023-01-30T02:11:23;98530.03;;;5.86;100.00
19797;BME280;10058;57.654;12.044;2023-01-30T02:13:49;98515.91;;;5.72;100.00
19797;BME280;10058;57.654;12.044;2023-01-30T02:16:15;98505.53;;;5.81;100.00
19797;BME280;10058;57.654;12.044;2023-01-30T02:18:41;98514.28;;;5.83;100.00
19797;BME280;10058;57.654;12.044;2023-01-30T02:29:08;98522.09;;;5.78;100.00
19797;BME280;10058;57.654;12.044;2023-01-30T02:34:16;98514.22;;;5.77;100.00
19797;BME280;10058;57.654;12.044;2023-01-30T02:42:04;98488.91;;;5.80;100.00
19797;BME280;10058;57.654;12.044;2023-01-30T02:50:04;98495.09;;;5.87;100.00
19797;BME280;10058;57.654;12.044;2023-01-30T02:52:31;98500.25;;;5.79;100.00
19797;BME280;10058;57.654;12.044;2023-01-30T02:54:57;98489.78;;;5.81;100.00
19797;BME280;10058;57.654;12.044;2023-01-30T02:57:23;98490.00;;;5.99;100.00
19797;BME280;10058;57.654;12.044;2023-01-30T02:59:58;98487.34;;;5.96;100.00
19797;BME280;10058;57.654;12.044;2023-01-30T03:04:53;98488.25;;;5.98;100.00
19797;BME280;10058;57.654;12.044;2023-01-30T03:10:06;98499.63;;;5.99;100.00
19797;BME280;10058;57.654;12.044;2023-01-30T03:12:52;98495.09;;;5.87;100.00
19797;BME280;10058;57.654;12.044;2023-01-30T03:15:29;98495.06;;;5.84;100.00
19797;BME280;10058;57.654;12.044;2023-01-30T03:17:55;98500.22;;;5.75;100.00
19797;BME280;10058;57.654;12.044;2023-01-30T03:20:21;98491.59;;;5.85;100.00
19797;BME280;10058;57.654;12.044;2023-01-30T03:22:46;98507.25;;;5.80;100.00
19797;BME280;10058;57.654;12.044;2023-01-30T03:25:13;98488.06;;;5.83;100.00
19797;BME280;10058;57.654;12.044;2023-01-30T03:27:39;98491.69;;;5.92;100.00
19797;BME280;10058;57.654;12.044;2023-01-30T03:30:05;98485.59;;;5.95;100.00
19797;BME280;10058;57.654;12.044;2023-01-30T03:32:30;98477.75;;;5.98;100.00
19797;BME280;10058;57.654;12.044;2023-01-30T03:34:55;98469.06;;;6.02;100.00
19797;BME280;10058;57.654;12.044;2023-01-30T03:37:20;98472.47;;;5.95;100.00
19797;BME280;10058;57.654;12.044;2023-01-30T03:39:46;98464.75;;;6.10;100.00
19797;BME280;10058;57.654;12.044;2023-01-30T03:42:11;98464.69;;;6.03;100.00
19797;BME280;10058;57.654;12.044;2023-01-30T03:44:36;98456.75;;;5.97;100.00
19797;BME280;10058;57.654;12.044;2023-01-30T03:47:01;98455.06;;;6.00;100.00
19797;BME280;10058;57.654;12.044;2023-01-30T03:49:26;98463.69;;;5.90;100.00
19797;BME280;10058;57.654;12.044;2023-01-30T03:51:52;98453.19;;;5.90;100.00
19797;BME280;10058;57.654;12.044;2023-01-30T03:54:17;98460.97;;;5.81;100.00
19797;BME280;10058;57.654;12.044;2023-01-30T03:56:42;98453.31;;;6.01;100.00
19797;BME280;10058;57.654;12.044;2023-01-30T03:59:07;98441.13;;;6.07;100.00
19797;BME280;10058;57.654;12.044;2023-01-30T04:01:33;98435.91;;;6.10;100.00
19797;BME280;10058;57.654;12.044;2023-01-30T04:03:58;98430.56;;;5.98;100.00
19797;BME280;10058;57.654;12.044;2023-01-30T04:06:23;98418.53;;;6.21;100.00
19797;BME280;10058;57.654;12.044;2023-01-30T04:08:50;98433.38;;;6.19;100.00
19797;BME280;10058;57.654;12.044;2023-01-30T04:11:16;98408.03;;;6.21;100.00
19797;BME280;10058;57.654;12.044;2023-01-30T04:13:41;98427.13;;;6.07;100.00
19797;BME280;10058;57.654;12.044;2023-01-30T04:16:13;98421.88;;;6.02;100.00
19797;BME280;10058;57.654;12.044;2023-01-30T04:18:40;98404.28;;;5.92;100.00
19797;BME280;10058;57.654;12.044;2023-01-30T04:21:05;98414.69;;;5.83;100.00
19797;BME280;10058;57.654;12.044;2023-01-30T04:23:30;98401.53;;;5.78;100.00
19797;BME280;10058;57.654;12.044;2023-01-30T04:25:55;98392.75;;;5.70;100.00
19797;BME280;10058;57.654;12.044;2023-01-30T04:28:20;98377.06;;;5.79;100.00
19797;BME280;10058;57.654;12.044;2023-01-30T04:30:46;98377.84;;;5.65;100.00
19797;BME280;10058;57.654;12.044;2023-01-30T04:33:11;98384.88;;;5.69;100.00
19797;BME280;10058;57.654;12.044;2023-01-30T04:35:36;98388.16;;;5.46;100.00
19797;BME280;10058;57.654;12.044;2023-01-30T04:38:01;98374.16;;;5.44;100.00
19797;BME280;10058;57.654;12.044;2023-01-30T04:40:26;98389.97;;;5.53;100.00
19797;BME280;10058;57.654;12.044;2023-01-30T04:42:52;98384.84;;;5.66;100.00
19797;BME280;10058;57.654;12.044;2023-01-30T04:45:18;98404.06;;;5.68;100.00
19797;BME280;10058;57.654;12.044;2023-01-30T04:47:43;98404.03;;;5.65;100.00
19797;BME280;10058;57.654;12.044;2023-01-30T04:50:08;98401.66;;;5.92;100.00
19797;BME280;10058;57.654;12.044;2023-01-30T04:52:34;98380.78;;;6.00;100.00
19797;BME280;10058;57.654;12.044;2023-01-30T04:54:59;98366.75;;;5.98;100.00
19797;BME280;10058;57.654;12.044;2023-01-30T04:57:24;98384.13;;;5.85;100.00
19797;BME280;10058;57.654;12.044;2023-01-30T04:59:49;98358.88;;;5.93;100.00
19797;BME280;10058;57.654;12.044;2023-01-30T05:02:15;98361.50;;;5.94;100.00
19797;BME280;10058;57.654;12.044;2023-01-30T05:04:40;98358.88;;;5.93;100.00
19797;BME280;10058;57.654;12.044;2023-01-30T05:07:05;98360.41;;;5.73;100.00
19797;BME280;10058;57.654;12.044;2023-01-30T05:09:30;98372.63;;;5.68;100.00
19797;BME280;10058;57.654;12.044;2023-01-30T05:11:55;98348.34;;;5.90;100.00
19797;BME280;10058;57.654;12.044;2023-01-30T05:14:20;98345.63;;;5.79;100.00
19797;BME280;10058;57.654;12.044;2023-01-30T05:16:46;98346.59;;;5.89;100.00
19797;BME280;10058;57.654;12.044;2023-01-30T05:19:11;98347.34;;;5.76;100.00
19797;BME280;10058;57.654;12.044;2023-01-30T05:21:36;98345.72;;;5.90;100.00
19797;BME280;10058;57.654;12.044;2023-01-30T05:24:01;98343.88;;;5.78;100.00
19797;BME280;10058;57.654;12.044;2023-01-30T05:26:27;98344.81;;;5.85;100.00
19797;BME280;10058;57.654;12.044;2023-01-30T05:28:53;98333.59;;;6.03;100.00
19797;BME280;10058;57.654;12.044;2023-01-30T05:31:18;98323.81;;;5.82;100.00
19797;BME280;10058;57.654;12.044;2023-01-30T05:33:45;98325.59;;;5.86;100.00
19797;BME280;10058;57.654;12.044;2023-01-30T05:36:13;98323.78;;;5.79;100.00
19797;BME280;10058;57.654;12.044;2023-01-30T05:38:38;98323.84;;;5.86;100.00
19797;BME280;10058;57.654;12.044;2023-01-30T05:41:04;98318.53;;;5.79;100.00
19797;BME280;10058;57.654;12.044;2023-01-30T05:43:30;98332.56;;;5.84;100.00
19797;BME280;10058;57.654;12.044;2023-01-30T05:45:56;98327.47;;;5.99;100.00
19797;BME280;10058;57.654;12.044;2023-01-30T05:48:22;98342.38;;;6.09;100.00
19797;BME280;10058;57.654;12.044;2023-01-30T05:50:54;98340.53;;;5.96;100.00
19797;BME280;10058;57.654;12.044;2023-01-30T05:53:20;98320.44;;;5.95;100.00
19797;BME280;10058;57.654;12.044;2023-01-30T05:55:46;98312.41;;;5.77;100.00
19797;BME280;10058;57.654;12.044;2023-01-30T05:58:18;98327.28;;;5.78;100.00
19797;BME280;10058;57.654;12.044;2023-01-30T06:00:43;98336.81;;;5.73;100.00
19797;BME280;10058;57.654;12.044;2023-01-30T06:03:08;98337.78;;;5.81;100.00
19797;BME280;10058;57.654;12.044;2023-01-30T06:05:35;98336.06;;;5.86;100.00
19797;BME280;10058;57.654;12.044;2023-01-30T06:08:01;98311.69;;;5.93;100.00
19797;BME280;10058;57.654;12.044;2023-01-30T06:10:26;98313.28;;;5.76;100.00
19797;BME280;10058;57.654;12.044;2023-01-30T06:12:51;98334.31;;;5.85;100.00
19797;BME280;10058;57.654;12.044;2023-01-30T06:15:16;98329.09;;;5.88;100.00
19797;BME280;10058;57.654;12.044;2023-01-30T06:17:42;98322.09;;;5.84;100.00
19797;BME280;10058;57.654;12.044;2023-01-30T06:20:08;98322.84;;;5.72;100.00
19797;BME280;10058;57.654;12.044;2023-01-30T06:22:33;98320.31;;;5.80;100.00
19797;BME280;10058;57.654;12.044;2023-01-30T06:24:58;98320.28;;;5.77;100.00
19797;BME280;10058;57.654;12.044;2023-01-30T06:27:23;98322.09;;;5.84;100.00
19797;BME280;10058;57.654;12.044;2023-01-30T06:29:49;98334.25;;;5.79;100.00
19797;BME280;10058;57.654;12.044;2023-01-30T06:32:14;98324.56;;;5.64;100.00
19797;BME280;10058;57.654;12.044;2023-01-30T06:34:39;98321.94;;;5.66;100.00
19797;BME280;10058;57.654;12.044;2023-01-30T06:37:04;98306.41;;;5.90;100.00
19797;BME280;10058;57.654;12.044;2023-01-30T06:39:29;98309.88;;;5.87;100.00
19797;BME280;10058;57.654;12.044;2023-01-30T06:41:55;98308.13;;;5.85;100.00
19797;BME280;10058;57.654;12.044;2023-01-30T06:44:20;98301.09;;;5.81;100.00
19797;BME280;10058;57.654;12.044;2023-01-30T06:46:45;98308.06;;;5.79;100.00
19797;BME280;10058;57.654;12.044;2023-01-30T06:49:10;98292.44;;;5.91;100.00
19797;BME280;10058;57.654;12.044;2023-01-30T06:51:35;98290.66;;;5.87;100.00
19797;BME280;10058;57.654;12.044;2023-01-30T06:54:00;98293.25;;;5.84;100.00
19797;BME280;10058;57.654;12.044;2023-01-30T06:56:26;98298.56;;;5.91;100.00
19797;BME280;10058;57.654;12.044;2023-01-30T06:58:51;98313.41;;;5.91;100.00
19797;BME280;10058;57.654;12.044;2023-01-30T07:01:16;98313.50;;;6.03;100.00
19797;BME280;10058;57.654;12.044;2023-01-30T07:03:43;98309.25;;;6.22;100.00
19797;BME280;10058;57.654;12.044;2023-01-30T07:06:08;98306.44;;;5.94;100.00
19797;BME280;10058;57.654;12.044;2023-01-30T07:08:33;98266.03;;;5.64;100.00
19797;BME280;10058;57.654;12.044;2023-01-30T07:10:58;98301.28;;;6.08;100.00
19797;BME280;10058;57.654;12.044;2023-01-30T07:13:23;98297.78;;;6.06;100.00
19797;BME280;10058;57.654;12.044;2023-01-30T07:15:49;98236.50;;;5.89;100.00
19797;BME280;10058;57.654;12.044;2023-01-30T07:18:14;98284.66;;;6.08;100.00
19797;BME280;10058;57.654;12.044;2023-01-30T07:20:39;98292.50;;;6.00;100.00
19797;BME280;10058;57.654;12.044;2023-01-30T07:23:06;98289.88;;;5.99;100.00
19797;BME280;10058;57.654;12.044;2023-01-30T07:25:31;98313.47;;;6.00;100.00
19797;BME280;10058;57.654;12.044;2023-01-30T07:27:57;98319.56;;;5.98;100.00
19797;BME280;10058;57.654;12.044;2023-01-30T07:30:23;98315.28;;;6.10;100.00
19797;BME280;10058;57.654;12.044;2023-01-30T07:32:52;98315.28;;;6.10;100.00
19797;BME280;10058;57.654;12.044;2023-01-30T07:35:18;98316.09;;;5.99;100.00
19797;BME280;10058;57.654;12.044;2023-01-30T07:37:45;98322.25;;;6.05;100.00
19797;BME280;10058;57.654;12.044;2023-01-30T07:40:10;98317.03;;;6.11;100.00
19797;BME280;10058;57.654;12.044;2023-01-30T07:42:36;98300.28;;;5.88;100.00
19797;BME280;10058;57.654;12.044;2023-01-30T07:45:01;98311.63;;;5.87;100.00
19797;BME280;10058;57.654;12.044;2023-01-30T07:47:26;98303.78;;;5.90;100.00
19797;BME280;10058;57.654;12.044;2023-01-30T07:49:51;98300.22;;;5.82;100.00
19797;BME280;10058;57.654;12.044;2023-01-30T07:52:16;98302.91;;;5.88;100.00
19797;BME280;10058;57.654;12.044;2023-01-30T07:54:42;98302.94;;;5.94;100.00
19797;BME280;10058;57.654;12.044;2023-01-30T07:57:07;98296.75;;;5.86;100.00
19797;BME280;10058;57.654;12.044;2023-01-30T07:59:32;98305.44;;;5.77;100.00
19797;BME280;10058;57.654;12.044;2023-01-30T08:01:57;98306.38;;;5.87;100.00
19797;BME280;10058;57.654;12.044;2023-01-30T08:04:22;98302.91;;;5.91;100.00
19797;BME280;10058;57.654;12.044;2023-01-30T08:06:48;98304.56;;;5.80;100.00
19797;BME280;10058;57.654;12.044;2023-01-30T08:09:13;98317.69;;;5.83;100.00
19797;BME280;10058;57.654;12.044;2023-01-30T08:11:38;98313.47;;;6.00;100.00
19797;BME280;10058;57.654;12.044;2023-01-30T08:14:03;98316.06;;;5.94;100.00
19797;BME280;10058;57.654;12.044;2023-01-30T08:16:28;98308.19;;;5.92;100.00
19797;BME280;10058;57.654;12.044;2023-01-30T08:18:56;98313.50;;;6.03;100.00
19797;BME280;10058;57.654;12.044;2023-01-30T08:21:21;98329.22;;;6.00;100.00
19797;BME280;10058;57.654;12.044;2023-01-30T08:23:46;98323.94;;;5.97;100.00
19797;BME280;10058;57.654;12.044;2023-01-30T08:26:11;98313.47;;;5.97;100.00
19797;BME280;10058;57.654;12.044;2023-01-30T08:28:37;98334.41;;;5.94;100.00
19797;BME280;10058;57.654;12.044;2023-01-30T08:31:07;98321.31;;;5.97;100.00
19797;BME280;10058;57.654;12.044;2023-01-30T08:33:32;98320.63;;;6.22;100.00
19797;BME280;10058;57.654;12.044;2023-01-30T08:35:57;98317.88;;;6.07;100.00
19797;BME280;10058;57.654;12.044;2023-01-30T08:38:22;98320.53;;;6.13;100.00
19797;BME280;10058;57.654;12.044;2023-01-30T08:40:48;98324.06;;;6.17;100.00
19797;BME280;10058;57.654;12.044;2023-01-30T08:43:13;98305.75;;;6.27;100.00
19797;BME280;10058;57.654;12.044;2023-01-30T08:45:38;98318.06;;;6.36;100.00
19797;BME280;10058;57.654;12.044;2023-01-30T08:48:04;98325.91;;;6.35;100.00
19797;BME280;10058;57.654;12.044;2023-01-30T08:50:30;98333.00;;;6.51;100.00
19797;BME280;10058;57.654;12.044;2023-01-30T08:52:55;98324.28;;;6.58;100.00
19797;BME280;10058;57.654;12.044;2023-01-30T08:55:20;98334.75;;;6.52;100.00
19797;BME280;10058;57.654;12.044;2023-01-30T08:57:46;98341.81;;;6.68;100.00
19797;BME280;10058;57.654;12.044;2023-01-30T09:00:12;98334.84;;;6.79;100.00
19797;BME280;10058;57.654;12.044;2023-01-30T09:02:37;98341.78;;;6.65;100.00
19797;BME280;10058;57.654;12.044;2023-01-30T09:05:03;98348.78;;;6.63;100.00
19797;BME280;10058;57.654;12.044;2023-01-30T09:07:28;98331.38;;;6.83;100.00
19797;BME280;10058;57.654;12.044;2023-01-30T09:09:54;98320.84;;;6.71;100.00
19797;BME280;10058;57.654;12.044;2023-01-30T09:12:19;98319.97;;;6.74;100.00
19797;BME280;10058;57.654;12.044;2023-01-30T09:14:44;98351.47;;;6.72;100.00
19797;BME280;10058;57.654;12.044;2023-01-30T09:17:10;98329.56;;;6.67;100.00
19797;BME280;10058;57.654;12.044;2023-01-30T09:19:35;98342.72;;;6.72;100.00
19797;BME280;10058;57.654;12.044;2023-01-30T09:22:01;98347.09;;;6.74;100.00
19797;BME280;10058;57.654;12.044;2023-01-30T09:24:26;98354.88;;;6.59;100.00
19797;BME280;10058;57.654;12.044;2023-01-30T09:26:52;98343.63;;;6.87;100.00
19797;BME280;10058;57.654;12.044;2023-01-30T09:29:19;98331.28;;;6.62;100.00
19797;BME280;10058;57.654;12.044;2023-01-30T09:31:44;98315.50;;;6.53;100.00
19797;BME280;10058;57.654;12.044;2023-01-30T09:34:09;98334.78;;;6.61;100.00
19797;BME280;10058;57.654;12.044;2023-01-30T09:36:34;98333.88;;;6.54;100.00
19797;BME280;10058;57.654;12.044;2023-01-30T09:39:00;98340.03;;;6.61;100.00
19797;BME280;10058;57.654;12.044;2023-01-30T09:46:51;98357.63;;;6.86;100.00
19797;BME280;10058;57.654;12.044;2023-01-30T09:52:09;98354.13;;;6.87;100.00
19797;BME280;10058;57.654;12.044;2023-01-30T09:54:39;98347.19;;;7.08;100.00
19797;BME280;10058;57.654;12.044;2023-01-30T09:59:34;98324.31;;;6.66;100.00
19797;BME280;10058;57.654;12.044;2023-01-30T10:02:12;98324.38;;;6.85;100.00
19797;BME280;10058;57.654;12.044;2023-01-30T10:04:44;98334.03;;;7.00;100.00
19797;BME280;10058;57.654;12.044;2023-01-30T10:10:27;98335.75;;;6.86;100.00
19797;BME280;10058;57.654;12.044;2023-01-30T10:27:15;98387.34;;;6.73;100.00
19797;BME280;10058;57.654;12.044;2023-01-30T10:29:42;98366.31;;;6.67;100.00
19797;BME280;10058;57.654;12.044;2023-01-30T10:32:11;98368.00;;;6.59;100.00
19797;BME280;10058;57.654;12.044;2023-01-30T10:35:02;98361.06;;;6.67;100.00
19797;BME280;10058;57.654;12.044;2023-01-30T10:37:41;98354.97;;;6.74;100.00
19797;BME280;10058;57.654;12.044;2023-01-30T10:40:13;98374.22;;;6.75;100.00
19797;BME280;10058;57.654;12.044;2023-01-30T10:42:43;98397.03;;;6.91;100.00
19797;BME280;10058;57.654;12.044;2023-01-30T10:45:15;98399.66;;;6.94;100.00
19797;BME280;10058;57.654;12.044;2023-01-30T10:52:44;98399.59;;;6.80;100.00
19797;BME280;10058;57.654;12.044;2023-01-30T10:55:15;98410.13;;;6.86;100.00
19797;BME280;10058;57.654;12.044;2023-01-30T10:57:50;98402.31;;;6.92;100.00
19797;BME280;10058;57.654;12.044;2023-01-30T11:06:38;98418.97;;;7.04;100.00
19797;BME280;10058;57.654;12.044;2023-01-30T11:08:33;98427.81;;;7.27;100.00
19797;BME280;10058;57.654;12.044;2023-01-30T11:10:59;98461.91;;;7.16;100.00
19797;BME280;10058;57.654;12.044;2023-01-30T11:13:29;98427.81;;;7.27;100.00
19797;BME280;10058;57.654;12.044;2023-01-30T11:15:56;98433.94;;;7.26;100.00
19797;BME280;10058;57.654;12.044;2023-01-30T11:18:22;98440.09;;;7.40;100.00
19797;BME280;10058;57.654;12.044;2023-01-30T11:20:56;98430.44;;;7.31;100.00
19797;BME280;10058;57.654;12.044;2023-01-30T11:23:25;98431.31;;;7.26;100.00
19797;BME280;10058;57.654;12.044;2023-01-30T11:25:54;98433.97;;;7.38;100.00
19797;BME280;10058;57.654;12.044;2023-01-30T11:28:19;98446.22;;;7.38;100.00
19797;BME280;10058;57.654;12.044;2023-01-30T11:30:52;98439.22;;;7.40;100.00
19797;BME280;10058;57.654;12.044;2023-01-30T11:33:19;98437.38;;;7.16;100.00
19797;BME280;10058;57.654;12.044;2023-01-30T11:35:56;98426.91;;;7.19;100.00
19797;BME280;10058;57.654;12.044;2023-01-30T11:38:27;98434.81;;;7.25;100.00
19797;BME280;10058;57.654;12.044;2023-01-30T11:43:31;98443.56;;;7.33;100.00
19797;BME280;10058;57.654;12.044;2023-01-30T11:45:56;98448.00;;;7.43;100.00
19797;BME280;10058;57.654;12.044;2023-01-30T11:48:25;98446.09;;;7.10;100.00
19797;BME280;10058;57.654;12.044;2023-01-30T11:50:54;98447.00;;;7.12;100.00
19797;BME280;10058;57.654;12.044;2023-01-30T11:53:24;98443.59;;;7.39;100.00
19797;BME280;10058;57.654;12.044;2023-01-30T11:55:53;98413.63;;;6.85;100.00
19797;BME280;10058;57.654;12.044;2023-01-30T11:58:19;98457.53;;;7.17;100.00
19797;BME280;10058;57.654;12.044;2023-01-30T12:00:46;98469.91;;;7.42;100.00
19797;BME280;10058;57.654;12.044;2023-01-30T12:03:13;98473.34;;;7.26;100.00
19797;BME280;10058;57.654;12.044;2023-01-30T12:05:42;98480.34;;;7.33;100.00
19797;BME280;10058;57.654;12.044;2023-01-30T12:08:21;98485.59;;;7.30;100.00
19797;BME280;10058;57.654;12.044;2023-01-30T12:10:49;98490.84;;;7.30;100.00
19797;BME280;10058;57.654;12.044;2023-01-30T12:13:17;98488.28;;;7.42;100.00
19797;BME280;10058;57.654;12.044;2023-01-30T12:15:44;98505.75;;;7.25;100.00
19797;BME280;10058;57.654;12.044;2023-01-30T12:28:41;98510.16;;;7.38;100.00
19797;BME280;10058;57.654;12.044;2023-01-30T12:31:22;98501.38;;;7.33;100.00
19797;BME280;10058;57.654;12.044;2023-01-30T12:33:48;98506.63;;;7.33;100.00
19797;BME280;10058;57.654;12.044;2023-01-30T12:36:24;98504.03;;;7.41;100.00
19797;BME280;10058;57.654;12.044;2023-01-30T12:38:55;98508.44;;;7.43;100.00
19797;BME280;10058;57.654;12.044;2023-01-30T12:44:02;98514.50;;;7.31;100.00
19797;BME280;10058;57.654;12.044;2023-01-30T12:54:06;98527.69;;;7.45;100.00
19797;BME280;10058;57.654;12.044;2023-01-30T12:56:39;98526.03;;;7.59;100.00
19797;BME280;10058;57.654;12.044;2023-01-30T12:59:09;98527.75;;;7.54;100.00
19797;BME280;10058;57.654;12.044;2023-01-30T13:09:18;98547.91;;;7.63;100.00
19797;BME280;10058;57.654;12.044;2023-01-30T13:22:02;98577.69;;;7.62;100.00
19797;BME280;10058;57.654;12.044;2023-01-30T13:26:57;98592.63;;;7.64;100.00
19797;BME280;10058;57.654;12.044;2023-01-30T13:29:28;98604.84;;;7.55;100.00
19797;BME280;10058;57.654;12.044;2023-01-30T13:31:55;98614.59;;;7.74;100.00
19797;BME280;10058;57.654;12.044;2023-01-30T13:34:30;98610.97;;;7.51;100.00
19797;BME280;10058;57.654;12.044;2023-01-30T13:37:01;98617.19;;;7.69;100.00
19797;BME280;10058;57.654;12.044;2023-01-30T13:39:39;98622.41;;;7.63;100.00
19797;BME280;10058;57.654;12.044;2023-01-30T13:42:07;98627.69;;;7.69;100.00
19797;BME280;10058;57.654;12.044;2023-01-30T13:44:37;98634.56;;;7.46;100.00
19797;BME280;10058;57.654;12.044;2023-01-30T13:47:08;98642.56;;;7.64;100.00
19797;BME280;10058;57.654;12.044;2023-01-30T13:49:42;98658.38;;;7.72;100.00
19797;BME280;10058;57.654;12.044;2023-01-30T13:52:22;98669.81;;;7.76;100.00
19797;BME280;10058;57.654;12.044;2023-01-30T13:54:55;98666.22;;;7.64;100.00
19797;BME280;10058;57.654;12.044;2023-01-30T14:02:31;98687.25;;;7.64;100.00
19797;BME280;10058;57.654;12.044;2023-01-30T14:04:57;98697.72;;;7.55;100.00
19797;BME280;10058;57.654;12.044;2023-01-30T14:12:49;98727.44;;;7.42;100.00
19797;BME280;10058;57.654;12.044;2023-01-30T14:20:24;98737.94;;;7.42;100.00
19797;BME280;10058;57.654;12.044;2023-01-30T14:22:50;98736.28;;;7.56;100.00
19797;BME280;10058;57.654;12.044;2023-01-30T14:32:57;98760.72;;;7.46;100.00
19797;BME280;10058;57.654;12.044;2023-01-30T14:35:23;98776.41;;;7.34;100.00
19797;BME280;10058;57.654;12.044;2023-01-30T14:37:50;98776.34;;;7.28;100.00
19797;BME280;10058;57.654;12.044;2023-01-30T14:51:18;98814.75;;;7.14;100.00
19797;BME280;10058;57.654;12.044;2023-01-30T14:53:46;98814.59;;;6.98;100.00
19797;BME280;10058;57.654;12.044;2023-01-30T14:56:12;98804.00;;;6.89;100.00
19797;BME280;10058;57.654;12.044;2023-01-30T14:58:37;98833.81;;;6.91;100.00
19797;BME280;10058;57.654;12.044;2023-01-30T15:01:03;98845.91;;;6.80;100.00
19797;BME280;10058;57.654;12.044;2023-01-30T15:03:28;98860.72;;;6.77;100.00
19797;BME280;10058;57.654;12.044;2023-01-30T15:05:57;98872.16;;;6.80;100.00
19797;BME280;10058;57.654;12.044;2023-01-30T15:08:23;98873.91;;;6.80;100.00
19797;BME280;10058;57.654;12.044;2023-01-30T15:10:59;98852.06;;;6.84;100.00
19797;BME280;10058;57.654;12.044;2023-01-30T15:13:41;98871.19;;;6.71;100.00
19797;BME280;10058;57.654;12.044;2023-01-30T15:23:43;98887.63;;;6.59;100.00